createdAt,value
2022-08-07T00:01:43.373Z,0
2022-08-07T00:08:08.024Z,0
2022-08-07T00:13:30.512Z,0
2022-08-07T00:19:08.498Z,0
2022-08-07T00:25:24.340Z,0
2022-08-07T00:31:04.469Z,0
2022-08-07T00:36:42.866Z,0
2022-08-07T00:42:06.924Z,0
2022-08-07T00:48:08.645Z,0
2022-08-07T00:53:38.682Z,0
2022-08-07T00:59:19.978Z,0
2022-08-07T01:04:59.269Z,0
2022-08-07T01:10:21.920Z,0
2022-08-07T01:16:05.798Z,0
2022-08-07T01:21:33.816Z,0
2022-08-07T01:27:00.993Z,0
2022-08-07T01:32:23.393Z,0
2022-08-07T01:37:47.006Z,0
2022-08-07T01:43:16.519Z,0
2022-08-07T01:54:12.838Z,0
2022-08-07T02:00:03.099Z,0
2022-08-07T02:05:43.636Z,0
2022-08-07T02:11:31.143Z,0
2022-08-07T02:17:31.570Z,0
2022-08-07T02:23:00.072Z,0
2022-08-07T02:28:24.366Z,0
2022-08-07T02:34:02.015Z,0
2022-08-07T02:39:42.725Z,0
2022-08-07T02:46:01.003Z,0
2022-08-07T02:51:29.307Z,0
2022-08-07T02:57:16.049Z,0
2022-08-07T03:02:54.065Z,0
2022-08-07T03:08:18.893Z,0
2022-08-07T03:14:14.529Z,0
2022-08-07T03:19:56.053Z,0
2022-08-07T03:25:26.067Z,0
2022-08-07T03:31:04.099Z,0
2022-08-07T03:36:36.547Z,0
2022-08-07T03:42:01.847Z,0
2022-08-07T03:47:24.453Z,0
2022-08-07T03:52:47.017Z,0
2022-08-07T03:58:35.777Z,0
2022-08-07T04:04:39.343Z,0
2022-08-07T04:10:02.205Z,0.1
2022-08-07T04:15:41.372Z,0.1
2022-08-07T04:21:07.641Z,0.1
2022-08-07T04:26:30.157Z,0.1
2022-08-07T04:32:02.842Z,0.1
2022-08-07T04:37:40.546Z,0.1
2022-08-07T04:44:10.859Z,0.3
2022-08-07T04:49:42.591Z,0.3
2022-08-07T04:58:08.189Z,0.3
2022-08-07T05:05:52.390Z,0.3
2022-08-07T05:17:50.492Z,0.2
2022-08-07T05:23:18.218Z,0.2
2022-08-07T05:28:52.843Z,0.3
2022-08-07T05:34:15.686Z,0.3
2022-08-07T05:40:07.335Z,0.3
2022-08-07T05:45:47.190Z,0.3
2022-08-07T05:51:11.835Z,0.4
2022-08-07T05:56:45.686Z,0.5
2022-08-07T06:02:08.390Z,1.5
2022-08-07T06:08:09.392Z,0.7
2022-08-07T06:14:11.246Z,0.7
2022-08-07T06:19:58.442Z,5.9
2022-08-07T06:25:34.688Z,6
2022-08-07T06:30:59.567Z,4
2022-08-07T06:36:27.436Z,3.2
2022-08-07T06:42:01.368Z,2.5
2022-08-07T06:47:27.450Z,3.4
2022-08-07T06:53:49.392Z,3.9
2022-08-07T07:01:25.346Z,4.1
2022-08-07T07:07:19.091Z,4
2022-08-07T07:13:40.728Z,4
2022-08-07T07:19:54.964Z,1.3
2022-08-07T07:26:33.712Z,4.6
2022-08-07T07:32:02.081Z,5
2022-08-07T07:37:45.666Z,1.4
2022-08-07T07:43:48.305Z,5.6
2022-08-07T07:50:31.994Z,1.8
2022-08-07T07:56:03.735Z,2.8
2022-08-07T08:02:01.403Z,3.1
2022-08-07T08:07:51.743Z,4.1
2022-08-07T08:13:33.179Z,1.7
2022-08-07T08:20:16.508Z,3.3
2022-08-07T08:25:56.181Z,5.3
2022-08-07T08:31:59.481Z,5.8
2022-08-07T08:38:03.696Z,6.5
2022-08-07T11:58:43.326Z,6.2
2022-08-07T12:09:48.412Z,6.2
2022-08-07T12:15:17.124Z,6.7
2022-08-07T12:21:54.997Z,6.9
2022-08-07T12:28:24.093Z,6.7
2022-08-07T12:39:41.913Z,6.6
2022-08-07T12:50:49.225Z,6.1
2022-08-07T12:56:13.766Z,7.2
2022-08-07T13:01:43.290Z,6.5
2022-08-07T13:07:18.047Z,6.9
2022-08-07T13:13:47.666Z,6.9
2022-08-07T13:19:18.287Z,6.8
2022-08-07T13:25:15.328Z,6.5
2022-08-07T13:31:01.489Z,7.2
2022-08-07T13:42:24.964Z,7.1
2022-08-07T13:48:04.246Z,7.5
2022-08-07T13:54:01.058Z,7.2
2022-08-07T13:59:26.982Z,7.6
2022-08-07T14:04:54.929Z,7.9
2022-08-07T14:16:25.545Z,8.1
2022-08-07T14:22:00.811Z,7.4
2022-08-07T14:28:20.382Z,8.5
2022-08-07T15:57:10.852Z,0.4
2022-08-07T16:03:20.682Z,0.4
2022-08-07T16:09:22.491Z,0.3
2022-08-07T16:15:03.952Z,0.3
2022-08-07T16:20:33.183Z,0.3
2022-08-07T16:25:59.362Z,0.3
2022-08-07T16:31:52.116Z,0.3
2022-08-07T16:38:05.210Z,0.3
2022-08-07T16:44:03.007Z,0.3
2022-08-07T16:51:52.032Z,0.3
2022-08-07T16:58:22.355Z,0.3
2022-08-07T17:10:05.002Z,0.3
2022-08-07T17:15:56.297Z,0.3
2022-08-07T17:21:22.633Z,0.3
2022-08-07T17:26:49.662Z,0.3
2022-08-07T17:32:28.341Z,0.4
2022-08-07T17:38:32.417Z,0.3
2022-08-07T17:44:02.051Z,0.3
2022-08-07T17:49:55.767Z,0.3
2022-08-07T17:55:54.968Z,0.3
2022-08-07T18:01:38.777Z,0.2
2022-08-07T18:07:19.871Z,0.2
2022-08-07T18:12:56.897Z,0.2
2022-08-07T18:18:36.744Z,0.1
2022-08-07T18:27:38.638Z,0.1
2022-08-07T18:33:10.632Z,0.1
2022-08-07T18:38:54.638Z,0.1
2022-08-07T18:46:22.161Z,0.1
2022-08-07T18:52:25.721Z,0.1
2022-08-07T18:58:25.980Z,0.1
2022-08-07T19:03:51.990Z,0.1
2022-08-07T19:09:55.170Z,0
2022-08-07T19:15:23.074Z,0
2022-08-07T19:22:39.410Z,0
2022-08-07T19:28:31.626Z,0
2022-08-07T19:37:55.723Z,0
2022-08-07T19:43:43.301Z,0
2022-08-07T19:49:56.777Z,0
2022-08-07T19:56:13.762Z,0
2022-08-07T20:03:34.441Z,0
2022-08-07T20:14:38.359Z,0
2022-08-07T20:20:21.371Z,0
2022-08-07T20:25:53.075Z,0
2022-08-07T20:31:20.974Z,0
2022-08-07T20:36:50.638Z,0
2022-08-07T20:42:14.625Z,0
2022-08-07T20:47:55.909Z,0
2022-08-07T20:53:26.067Z,0
2022-08-07T21:00:05.731Z,0
2022-08-07T21:05:43.179Z,0
2022-08-07T21:11:22.235Z,0
2022-08-07T21:18:01.685Z,0
2022-08-07T21:23:57.184Z,0
2022-08-07T21:29:38.169Z,0
2022-08-07T21:35:15.363Z,0
2022-08-07T21:40:38.907Z,0
2022-08-07T21:46:04.953Z,0
2022-08-07T21:51:55.759Z,0
2022-08-07T21:57:31.656Z,0
2022-08-07T22:03:16.624Z,0
2022-08-07T22:08:54.911Z,0
2022-08-07T22:14:23.598Z,0
2022-08-07T22:20:23.131Z,0
2022-08-07T22:25:47.485Z,0
2022-08-07T22:31:45.121Z,0
2022-08-07T22:38:01.567Z,0
2022-08-07T22:43:31.419Z,0
2022-08-07T22:49:01.422Z,0
2022-08-07T23:00:28.331Z,0
2022-08-07T23:06:05.271Z,0
2022-08-07T23:11:46.382Z,0
2022-08-07T23:17:21.845Z,0
2022-08-07T23:22:45.122Z,0
2022-08-07T23:34:24.509Z,0
2022-08-07T23:40:03.785Z,0
2022-08-07T23:46:02.513Z,0
2022-08-07T23:57:30.486Z,0
